Time;durP1;ratioP1;P1;durP2;ratioP2;P2;SDS_P1;SDS_P2;PMS_P1;PMS_P2;Temp;Humidity;BMP_temperature;BMP_pressure;BME280_temperature;BME280_humidity;BME280_pressure;Samples;Min_cycle;Max_cycle;Signal;HPM_P1;HPM_P2
2023/11/24 00:02:22;;;;;;;13.07;8.73;;;;;;;;;;5116852;28;20015;-84
2023/11/24 00:04:48;;;;;;;13.93;8.50;;;;;;;;;;5098167;28;20264;-84
2023/11/24 00:07:13;;;;;;;14.85;8.52;;;;;;;;;;5116924;28;20032;-84
2023/11/24 00:09:38;;;;;;;14.63;8.63;;;;;;;;;;5115923;28;20396;-84
2023/11/24 00:12:04;;;;;;;13.32;8.75;;;;;;;;;;5115988;28;20476;-84
2023/11/24 00:14:29;;;;;;;13.13;8.07;;;;;;;;;;5116232;28;20032;-83
2023/11/24 00:16:54;;;;;;;12.80;8.30;;;;;;;;;;5116217;28;20024;-84
2023/11/24 00:19:20;;;;;;;16.88;8.25;;;;;;;;;;5116489;28;20020;-83
2023/11/24 00:21:49;;;;;;;12.63;8.37;;;;;;;;;;5116408;28;20020;-84
2023/11/24 00:24:15;;;;;;;11.95;7.75;;;;;;;;;;5116221;28;20102;-84
2023/11/24 00:26:40;;;;;;;12.48;7.90;;;;;;;;;;5114841;28;20070;-84
2023/11/24 00:29:05;;;;;;;13.05;7.47;;;;;;;;;;5115953;28;20019;-84
2023/11/24 00:31:31;;;;;;;12.50;7.90;;;;;;;;;;5116264;28;20031;-84
2023/11/24 00:33:56;;;;;;;15.25;8.57;;;;;;;;;;5116170;28;20031;-84
2023/11/24 00:36:22;;;;;;;15.90;8.38;;;;;;;;;;5115899;28;20063;-84
2023/11/24 00:38:50;;;;;;;15.43;7.88;;;;;;;;;;5115853;28;20031;-84
2023/11/24 00:41:16;;;;;;;12.98;7.97;;;;;;;;;;5115628;28;20053;-84
2023/11/24 00:43:41;;;;;;;15.68;8.85;;;;;;;;;;5097775;28;20024;-83
2023/11/24 00:46:07;;;;;;;17.52;8.35;;;;;;;;;;5115830;28;20023;-83
2023/11/24 00:48:32;;;;;;;12.32;7.57;;;;;;;;;;5115865;28;20038;-83
2023/11/24 00:50:57;;;;;;;16.43;8.97;;;;;;;;;;5115471;28;20035;-84
2023/11/24 00:53:23;;;;;;;12.50;8.75;;;;;;;;;;5115905;28;20062;-83
2023/11/24 00:55:48;;;;;;;18.13;8.68;;;;;;;;;;5115374;28;20464;-83
2023/11/24 00:58:13;;;;;;;14.83;8.23;;;;;;;;;;5115184;28;20023;-84
2023/11/24 01:00:38;;;;;;;12.73;8.63;;;;;;;;;;5115231;28;20024;-83
2023/11/24 01:03:05;;;;;;;13.57;9.30;;;;;;;;;;5115254;28;20251;-83
2023/11/24 01:05:30;;;;;;;15.32;9.45;;;;;;;;;;5115292;28;20255;-84
2023/11/24 01:07:56;;;;;;;13.73;8.82;;;;;;;;;;5115365;28;20016;-83
2023/11/24 01:10:21;;;;;;;15.68;9.38;;;;;;;;;;5114826;28;20034;-84
2023/11/24 01:12:47;;;;;;;14.73;9.60;;;;;;;;;;5115525;28;20035;-83
2023/11/24 01:15:12;;;;;;;13.50;9.23;;;;;;;;;;5115403;28;20051;-83
2023/11/24 01:17:38;;;;;;;14.18;8.45;;;;;;;;;;5097237;28;20309;-84
2023/11/24 01:20:03;;;;;;;17.42;10.00;;;;;;;;;;5115624;28;20031;-84
2023/11/24 01:22:28;;;;;;;15.05;9.63;;;;;;;;;;5115560;28;20516;-83
2023/11/24 01:24:54;;;;;;;17.20;9.73;;;;;;;;;;5115617;28;20023;-84
2023/11/24 01:27:19;;;;;;;13.80;9.13;;;;;;;;;;5115521;28;20294;-83
2023/11/24 01:29:44;;;;;;;13.17;9.33;;;;;;;;;;5115141;28;20307;-84
2023/11/24 01:32:09;;;;;;;13.30;8.37;;;;;;;;;;5115105;28;20736;-84
2023/11/24 01:34:35;;;;;;;14.63;9.33;;;;;;;;;;5114743;28;20604;-83
2023/11/24 01:37:01;;;;;;;16.98;9.30;;;;;;;;;;5115062;28;20304;-83
2023/11/24 01:39:26;;;;;;;12.25;8.25;;;;;;;;;;5115273;28;20106;-83
2023/11/24 01:41:51;;;;;;;13.25;8.27;;;;;;;;;;5114950;28;20012;-84
2023/11/24 01:44:18;;;;;;;15.70;9.32;;;;;;;;;;5115242;28;20479;-84
2023/11/24 01:46:44;;;;;;;12.73;8.38;;;;;;;;;;5115059;28;20111;-83
2023/11/24 01:49:10;;;;;;;13.55;8.05;;;;;;;;;;5115255;28;20047;-83
2023/11/24 01:51:35;;;;;;;15.15;9.10;;;;;;;;;;5114799;28;20101;-83
2023/11/24 01:54:01;;;;;;;12.77;8.20;;;;;;;;;;5114716;28;20015;-83
2023/11/24 01:56:27;;;;;;;14.65;8.32;;;;;;;;;;5114934;28;20032;-83
2023/11/24 01:58:52;;;;;;;11.57;7.93;;;;;;;;;;5096550;28;20439;-84
2023/11/24 02:01:19;;;;;;;12.70;8.00;;;;;;;;;;5114949;28;20106;-84
2023/11/24 02:03:44;;;;;;;11.55;8.68;;;;;;;;;;5114822;28;20028;-85
2023/11/24 02:06:11;;;;;;;10.60;7.27;;;;;;;;;;5114263;28;20453;-83
2023/11/24 02:08:36;;;;;;;10.05;7.32;;;;;;;;;;5114539;28;20279;-83
2023/11/24 02:11:02;;;;;;;11.55;7.60;;;;;;;;;;5114338;28;20413;-83
2023/11/24 02:13:27;;;;;;;12.40;6.85;;;;;;;;;;5114105;28;20047;-85
2023/11/24 02:15:53;;;;;;;10.00;6.63;;;;;;;;;;5114663;28;20023;-83
2023/11/24 02:18:18;;;;;;;13.23;7.88;;;;;;;;;;5114378;28;20016;-84
2023/11/24 02:20:44;;;;;;;11.38;7.57;;;;;;;;;;5114131;28;20490;-83
2023/11/24 02:23:09;;;;;;;11.27;7.80;;;;;;;;;;5114531;28;20023;-83
2023/11/24 02:25:34;;;;;;;10.37;7.27;;;;;;;;;;5114306;28;20084;-83
2023/11/24 02:27:59;;;;;;;13.47;7.63;;;;;;;;;;5114446;28;20028;-83
2023/11/24 02:30:24;;;;;;;12.87;6.80;;;;;;;;;;5114012;28;20126;-84
2023/11/24 02:32:50;;;;;;;10.68;7.40;;;;;;;;;;5114199;28;20248;-84
2023/11/24 02:35:15;;;;;;;10.77;7.13;;;;;;;;;;5114409;28;20019;-84
2023/11/24 02:37:40;;;;;;;12.05;7.63;;;;;;;;;;5113797;28;20276;-83
2023/11/24 02:40:08;;;;;;;13.07;7.13;;;;;;;;;;5114061;28;20031;-83
2023/11/24 02:42:33;;;;;;;9.25;6.22;;;;;;;;;;5114599;28;20241;-83
2023/11/24 02:44:58;;;;;;;8.93;5.67;;;;;;;;;;5114130;28;20027;-83
2023/11/24 02:47:23;;;;;;;8.60;4.77;;;;;;;;;;5114093;28;20259;-84
2023/11/24 02:49:49;;;;;;;7.90;4.80;;;;;;;;;;5115463;28;20279;-84
2023/11/24 02:52:14;;;;;;;6.28;4.22;;;;;;;;;;5118324;28;20260;-83
2023/11/24 02:54:39;;;;;;;6.20;4.03;;;;;;;;;;5118742;28;20023;-84
2023/11/24 02:57:05;;;;;;;6.97;4.03;;;;;;;;;;5118587;28;20492;-83
2023/11/24 02:59:30;;;;;;;6.60;4.10;;;;;;;;;;5118555;28;20414;-84
2023/11/24 03:01:55;;;;;;;6.35;3.35;;;;;;;;;;5118417;28;20248;-84
2023/11/24 03:04:21;;;;;;;4.93;3.30;;;;;;;;;;5117918;28;20526;-84
2023/11/24 03:06:47;;;;;;;5.55;3.33;;;;;;;;;;5118241;28;20012;-83
2023/11/24 03:09:14;;;;;;;6.50;3.75;;;;;;;;;;5099729;28;20102;-83
2023/11/24 03:11:39;;;;;;;6.45;3.70;;;;;;;;;;5117973;28;20023;-83
2023/11/24 03:14:05;;;;;;;5.57;3.05;;;;;;;;;;5118218;28;20048;-84
2023/11/24 03:16:33;;;;;;;7.15;2.92;;;;;;;;;;5117693;28;20019;-83
2023/11/24 03:18:58;;;;;;;4.43;2.70;;;;;;;;;;5117987;28;20539;-84
2023/11/24 03:21:23;;;;;;;3.63;2.67;;;;;;;;;;5117588;28;20043;-84
2023/11/24 03:23:49;;;;;;;3.43;2.60;;;;;;;;;;5117456;28;20047;-84
2023/11/24 03:26:14;;;;;;;4.63;2.97;;;;;;;;;;5117665;28;20720;-83
2023/11/24 03:28:39;;;;;;;5.13;3.25;;;;;;;;;;5117543;28;20600;-84
2023/11/24 03:31:05;;;;;;;4.40;2.67;;;;;;;;;;5117792;28;20030;-84
2023/11/24 03:33:30;;;;;;;3.85;2.50;;;;;;;;;;5117889;28;20043;-84
2023/11/24 03:35:56;;;;;;;11.40;3.10;;;;;;;;;;5117402;28;20015;-83
2023/11/24 03:38:21;;;;;;;4.30;3.05;;;;;;;;;;5117421;28;20354;-84
2023/11/24 03:40:51;;;;;;;7.30;3.40;;;;;;;;;;5117019;28;20032;-85
2023/11/24 03:43:17;;;;;;;3.83;2.97;;;;;;;;;;5117195;28;20244;-85
2023/11/24 03:45:42;;;;;;;5.13;3.05;;;;;;;;;;5117267;28;20051;-83
2023/11/24 03:48:08;;;;;;;5.18;3.05;;;;;;;;;;5117102;28;20144;-84
2023/11/24 03:50:33;;;;;;;4.28;2.67;;;;;;;;;;5117028;28;20111;-83
2023/11/24 03:52:58;;;;;;;3.77;2.77;;;;;;;;;;5117391;28;20031;-84
2023/11/24 03:55:23;;;;;;;5.50;3.03;;;;;;;;;;5117183;28;20402;-84
2023/11/24 03:57:49;;;;;;;6.47;3.20;;;;;;;;;;5117217;28;20457;-84
2023/11/24 04:00:14;;;;;;;5.30;3.25;;;;;;;;;;5116650;28;20244;-84
2023/11/24 04:02:39;;;;;;;4.57;2.97;;;;;;;;;;5115684;28;20030;-83
2023/11/24 04:05:05;;;;;;;4.88;2.95;;;;;;;;;;5116817;28;20016;-83
2023/11/24 04:07:30;;;;;;;5.32;2.65;;;;;;;;;;5117019;28;20078;-83
2023/11/24 04:09:56;;;;;;;4.35;2.45;;;;;;;;;;5116660;28;20023;-83
2023/11/24 04:12:21;;;;;;;4.65;2.42;;;;;;;;;;5116565;28;20369;-84
2023/11/24 04:14:47;;;;;;;3.37;2.20;;;;;;;;;;5116626;28;20024;-83
2023/11/24 04:17:12;;;;;;;4.65;2.33;;;;;;;;;;5116645;28;20244;-83
2023/11/24 04:19:38;;;;;;;3.67;2.70;;;;;;;;;;5116897;28;20019;-84
2023/11/24 04:22:03;;;;;;;5.15;2.53;;;;;;;;;;5117216;28;20035;-83
2023/11/24 04:24:28;;;;;;;6.13;2.67;;;;;;;;;;5116764;28;20072;-83
2023/11/24 04:26:53;;;;;;;5.30;2.97;;;;;;;;;;5116454;28;20256;-83
2023/11/24 04:29:21;;;;;;;5.37;2.60;;;;;;;;;;5116291;28;20057;-84
2023/11/24 04:31:46;;;;;;;5.93;2.90;;;;;;;;;;5115120;28;20252;-85
2023/11/24 04:34:11;;;;;;;6.05;2.85;;;;;;;;;;5115446;28;20430;-85
2023/11/24 04:36:37;;;;;;;5.50;2.97;;;;;;;;;;5115302;28;20054;-85
2023/11/24 04:39:02;;;;;;;4.53;2.75;;;;;;;;;;5115426;28;20058;-84
2023/11/24 04:41:28;;;;;;;6.03;3.03;;;;;;;;;;5115472;28;20020;-85
2023/11/24 04:43:53;;;;;;;6.23;3.53;;;;;;;;;;5115195;28;20453;-84
2023/11/24 04:46:18;;;;;;;4.20;2.60;;;;;;;;;;5114683;28;20007;-84
2023/11/24 04:48:44;;;;;;;10.77;2.80;;;;;;;;;;5115530;28;20030;-83
2023/11/24 04:51:09;;;;;;;5.15;1.60;;;;;;;;;;5115070;28;20287;-85
2023/11/24 04:53:34;;;;;;;7.10;1.47;;;;;;;;;;5115037;28;20027;-84
2023/11/24 04:56:00;;;;;;;8.47;1.43;;;;;;;;;;5115120;28;20312;-84
2023/11/24 04:58:25;;;;;;;3.50;1.10;;;;;;;;;;5114381;28;20244;-84
2023/11/24 05:00:50;;;;;;;7.43;1.15;;;;;;;;;;5115006;28;20032;-85
2023/11/24 05:03:15;;;;;;;5.40;1.40;;;;;;;;;;5115251;28;20030;-85
2023/11/24 05:05:40;;;;;;;5.53;1.37;;;;;;;;;;5114803;28;20020;-84
2023/11/24 05:08:06;;;;;;;5.80;1.33;;;;;;;;;;5114364;28;20251;-85
2023/11/24 05:10:31;;;;;;;5.00;1.15;;;;;;;;;;5114220;28;20036;-86
2023/11/24 05:12:56;;;;;;;6.93;1.40;;;;;;;;;;5113802;28;20051;-84
2023/11/24 05:15:21;;;;;;;3.78;0.98;;;;;;;;;;5114751;28;20260;-84
2023/11/24 05:17:47;;;;;;;4.70;1.08;;;;;;;;;;5114622;28;20011;-85
2023/11/24 05:20:12;;;;;;;3.73;1.20;;;;;;;;;;5112826;28;20028;-85
2023/11/24 05:22:37;;;;;;;6.43;1.27;;;;;;;;;;5114368;28;20030;-85
2023/11/24 05:25:03;;;;;;;3.75;1.27;;;;;;;;;;5095188;28;20019;-86
2023/11/24 05:27:29;;;;;;;4.35;1.10;;;;;;;;;;5113885;28;20024;-86
2023/11/24 05:29:54;;;;;;;5.57;1.20;;;;;;;;;;5113966;28;20028;-87
2023/11/24 05:32:19;;;;;;;4.82;1.40;;;;;;;;;;5095939;28;20270;-90
2023/11/24 05:34:44;;;;;;;6.47;1.50;;;;;;;;;;5096435;28;20405;-84
2023/11/24 05:37:10;;;;;;;9.10;1.33;;;;;;;;;;5115102;28;20023;-84
2023/11/24 05:39:37;;;;;;;9.82;1.13;;;;;;;;;;5110677;28;20036;-84
2023/11/24 05:42:04;;;;;;;5.95;1.50;;;;;;;;;;5112086;28;20042;-84
2023/11/24 05:44:29;;;;;;;6.18;1.20;;;;;;;;;;5097346;28;20346;-84
2023/11/24 05:46:54;;;;;;;7.60;1.45;;;;;;;;;;5114931;28;20497;-84
2023/11/24 05:49:19;;;;;;;7.17;1.33;;;;;;;;;;5115150;28;20023;-86
2023/11/24 05:51:45;;;;;;;8.40;1.47;;;;;;;;;;5096770;28;20260;-84
2023/11/24 05:54:12;;;;;;;7.43;1.50;;;;;;;;;;5114876;28;20240;-85
2023/11/24 05:56:37;;;;;;;11.05;1.85;;;;;;;;;;5114887;28;20061;-84
2023/11/24 05:59:03;;;;;;;4.32;0.82;;;;;;;;;;5114544;28;20023;-84
2023/11/24 06:01:28;;;;;;;7.50;1.48;;;;;;;;;;5114393;28;20349;-84
2023/11/24 06:03:53;;;;;;;7.83;1.20;;;;;;;;;;5114897;28;20020;-84
2023/11/24 06:06:19;;;;;;;6.60;1.17;;;;;;;;;;5114407;28;20255;-84
2023/11/24 06:08:44;;;;;;;4.70;1.70;;;;;;;;;;5114609;28;20800;-84
2023/11/24 06:11:09;;;;;;;11.75;1.65;;;;;;;;;;5114594;28;20701;-84
2023/11/24 06:13:35;;;;;;;11.95;2.05;;;;;;;;;;5114667;28;20073;-84
2023/11/24 06:16:00;;;;;;;7.75;1.27;;;;;;;;;;5114595;28;20030;-84
2023/11/24 06:18:28;;;;;;;6.20;1.52;;;;;;;;;;5114544;28;20023;-85
2023/11/24 06:20:53;;;;;;;12.15;1.40;;;;;;;;;;5114458;28;20453;-84
2023/11/24 06:23:18;;;;;;;8.20;1.43;;;;;;;;;;5096009;28;20072;-84
2023/11/24 06:25:43;;;;;;;6.53;1.53;;;;;;;;;;5113786;28;20248;-84
2023/11/24 06:28:09;;;;;;;10.20;1.73;;;;;;;;;;5114122;28;20240;-84
2023/11/24 06:30:34;;;;;;;9.15;1.50;;;;;;;;;;5114345;28;20370;-84
2023/11/24 06:32:59;;;;;;;6.68;1.40;;;;;;;;;;5114420;28;20023;-84
2023/11/24 06:35:25;;;;;;;9.30;1.92;;;;;;;;;;5114294;28;20383;-84
2023/11/24 06:37:50;;;;;;;8.10;1.60;;;;;;;;;;5096023;28;20518;-84
2023/11/24 06:40:15;;;;;;;8.87;1.47;;;;;;;;;;5114505;28;20713;-85
2023/11/24 06:42:40;;;;;;;11.82;2.00;;;;;;;;;;5114462;28;20248;-84
2023/11/24 06:45:09;;;;;;;13.40;1.70;;;;;;;;;;5095961;28;20019;-84
2023/11/24 06:47:37;;;;;;;7.13;1.55;;;;;;;;;;5114074;28;20047;-84
2023/11/24 06:50:03;;;;;;;12.43;1.80;;;;;;;;;;5113869;28;20379;-84
2023/11/24 06:52:28;;;;;;;11.88;2.20;;;;;;;;;;5114277;28;20102;-84
2023/11/24 06:54:53;;;;;;;10.93;2.20;;;;;;;;;;5114375;28;20016;-84
2023/11/24 06:57:18;;;;;;;14.47;2.43;;;;;;;;;;5113839;28;20240;-84
2023/11/24 06:59:43;;;;;;;13.77;2.37;;;;;;;;;;5114218;28;20597;-84
2023/11/24 07:02:09;;;;;;;13.53;2.27;;;;;;;;;;5113903;28;20032;-84
2023/11/24 07:04:34;;;;;;;22.33;2.77;;;;;;;;;;5114053;28;20023;-84
2023/11/24 07:06:59;;;;;;;13.20;2.00;;;;;;;;;;5114043;28;20251;-84
2023/11/24 07:09:24;;;;;;;16.87;2.53;;;;;;;;;;5113609;28;20062;-84
2023/11/24 07:11:50;;;;;;;13.73;2.97;;;;;;;;;;5113924;28;20293;-84
2023/11/24 07:14:16;;;;;;;11.65;2.67;;;;;;;;;;5114053;28;20023;-84
2023/11/24 07:16:41;;;;;;;16.05;3.10;;;;;;;;;;5114039;28;20012;-84
2023/11/24 07:19:06;;;;;;;10.52;2.25;;;;;;;;;;5114027;28;20023;-84
2023/11/24 07:21:31;;;;;;;10.77;2.03;;;;;;;;;;5113744;28;20032;-84
2023/11/24 07:23:57;;;;;;;15.40;3.13;;;;;;;;;;5113941;28;20019;-84
2023/11/24 07:26:22;;;;;;;15.87;2.33;;;;;;;;;;5113678;28;20282;-84
2023/11/24 07:28:47;;;;;;;9.13;2.13;;;;;;;;;;5113547;28;20723;-84
2023/11/24 07:31:14;;;;;;;18.03;2.00;;;;;;;;;;5113478;28;20737;-84
2023/11/24 07:33:49;;;;;;;11.05;2.15;;;;;;;;;;5113995;28;20237;-84
2023/11/24 07:36:18;;;;;;;14.68;2.65;;;;;;;;;;5115362;28;20028;-84
2023/11/24 07:38:44;;;;;;;11.45;2.53;;;;;;;;;;5117726;28;20052;-84
2023/11/24 07:41:09;;;;;;;15.03;2.07;;;;;;;;;;5099356;28;20068;-84
2023/11/24 07:43:35;;;;;;;8.88;2.10;;;;;;;;;;5099179;28;20245;-84
2023/11/24 07:46:00;;;;;;;13.70;2.42;;;;;;;;;;5117580;28;20024;-84
2023/11/24 07:48:25;;;;;;;9.82;1.90;;;;;;;;;;5117427;28;20043;-84
2023/11/24 07:50:50;;;;;;;11.25;2.40;;;;;;;;;;5117383;28;20031;-84
2023/11/24 07:53:16;;;;;;;17.33;3.10;;;;;;;;;;5117667;28;20073;-84
2023/11/24 07:55:42;;;;;;;17.88;2.63;;;;;;;;;;5117375;28;20264;-84
2023/11/24 07:58:07;;;;;;;12.27;2.47;;;;;;;;;;5117299;28;20521;-84
2023/11/24 08:00:33;;;;;;;11.70;2.43;;;;;;;;;;5117392;28;20023;-84
2023/11/24 08:02:58;;;;;;;10.93;1.88;;;;;;;;;;5117180;28;20297;-85
2023/11/24 08:05:23;;;;;;;13.77;2.80;;;;;;;;;;5117080;28;20012;-85
2023/11/24 08:07:48;;;;;;;14.37;2.40;;;;;;;;;;5117430;28;20020;-84
2023/11/24 08:10:14;;;;;;;9.05;1.90;;;;;;;;;;5116629;28;20359;-84
2023/11/24 08:12:39;;;;;;;14.52;2.58;;;;;;;;;;5116835;28;20048;-84
2023/11/24 08:15:05;;;;;;;8.63;1.55;;;;;;;;;;5117129;28;20418;-84
2023/11/24 08:17:30;;;;;;;8.63;2.45;;;;;;;;;;5116862;28;20023;-84
2023/11/24 08:19:56;;;;;;;14.90;2.53;;;;;;;;;;5117148;28;20425;-84
2023/11/24 08:22:21;;;;;;;18.00;2.63;;;;;;;;;;5116697;28;20027;-84
2023/11/24 08:24:46;;;;;;;15.23;2.10;;;;;;;;;;5116797;28;20243;-84
2023/11/24 08:27:12;;;;;;;8.35;2.03;;;;;;;;;;5116727;28;20034;-84
2023/11/24 08:29:37;;;;;;;11.40;2.20;;;;;;;;;;5116512;28;20032;-84
2023/11/24 08:32:02;;;;;;;11.23;2.10;;;;;;;;;;5098533;28;20260;-84
2023/11/24 08:34:27;;;;;;;11.18;1.38;;;;;;;;;;5116532;28;20252;-84
2023/11/24 08:36:53;;;;;;;10.00;1.90;;;;;;;;;;5116579;28;20414;-84
2023/11/24 08:39:19;;;;;;;14.80;2.40;;;;;;;;;;5116787;28;20251;-84
2023/11/24 08:41:47;;;;;;;11.60;2.47;;;;;;;;;;5116407;28;20024;-84
2023/11/24 08:44:13;;;;;;;12.35;2.60;;;;;;;;;;5098126;28;20487;-83
2023/11/24 08:46:39;;;;;;;8.57;2.05;;;;;;;;;;5116238;28;20020;-84
2023/11/24 08:49:05;;;;;;;11.00;2.25;;;;;;;;;;5115856;28;20016;-84
2023/11/24 08:51:31;;;;;;;11.05;2.47;;;;;;;;;;5116248;28;20035;-84
2023/11/24 08:53:56;;;;;;;11.50;2.47;;;;;;;;;;5115772;28;20015;-84
2023/11/24 08:56:22;;;;;;;22.30;2.40;;;;;;;;;;5097885;28;20301;-84
2023/11/24 08:58:48;;;;;;;10.27;2.00;;;;;;;;;;5115882;28;20094;-84
2023/11/24 09:01:13;;;;;;;14.82;2.67;;;;;;;;;;5115907;28;20024;-84
2023/11/24 09:03:38;;;;;;;12.40;2.17;;;;;;;;;;5115940;28;20026;-84
2023/11/24 09:06:03;;;;;;;14.82;2.28;;;;;;;;;;5115954;28;20081;-84
2023/11/24 09:08:29;;;;;;;8.45;2.15;;;;;;;;;;5116064;28;20028;-84
2023/11/24 09:10:54;;;;;;;7.78;1.80;;;;;;;;;;5115551;28;20039;-85
2023/11/24 09:13:19;;;;;;;15.90;2.50;;;;;;;;;;5115972;28;20047;-84
2023/11/24 09:15:45;;;;;;;13.77;2.13;;;;;;;;;;5115547;28;20307;-84
2023/11/24 09:18:10;;;;;;;17.55;2.58;;;;;;;;;;5115740;28;20339;-84
2023/11/24 09:20:35;;;;;;;12.30;2.10;;;;;;;;;;5115658;28;20068;-84
2023/11/24 09:23:01;;;;;;;13.63;2.28;;;;;;;;;;5097303;28;20027;-84
2023/11/24 09:25:26;;;;;;;17.90;2.53;;;;;;;;;;5115641;28;20024;-85
2023/11/24 09:27:51;;;;;;;19.13;2.78;;;;;;;;;;5115971;28;20252;-84
2023/11/24 09:30:17;;;;;;;18.73;3.00;;;;;;;;;;5115353;28;20063;-83
2023/11/24 09:32:43;;;;;;;19.15;2.53;;;;;;;;;;5097336;28;20023;-84
2023/11/24 09:35:08;;;;;;;14.55;2.42;;;;;;;;;;5115099;28;20095;-84
2023/11/24 09:37:34;;;;;;;14.30;2.83;;;;;;;;;;5115460;28;20445;-84
2023/11/24 09:40:00;;;;;;;13.40;2.63;;;;;;;;;;5115448;28;20019;-83
2023/11/24 09:42:30;;;;;;;16.92;2.70;;;;;;;;;;5115309;28;20016;-85
2023/11/24 09:44:58;;;;;;;19.73;2.60;;;;;;;;;;5115202;28;20027;-85
2023/11/24 09:47:23;;;;;;;11.55;2.60;;;;;;;;;;5115196;28;20103;-84
2023/11/24 09:49:50;;;;;;;12.70;2.70;;;;;;;;;;5115045;28;20107;-84
2023/11/24 09:52:15;;;;;;;16.27;2.40;;;;;;;;;;5115101;28;20279;-84
2023/11/24 09:54:41;;;;;;;14.75;2.35;;;;;;;;;;5115344;28;20464;-84
2023/11/24 09:57:06;;;;;;;13.18;2.40;;;;;;;;;;5115275;28;20076;-84
2023/11/24 09:59:32;;;;;;;20.97;2.33;;;;;;;;;;5114513;28;20027;-84
2023/11/24 10:01:57;;;;;;;10.38;1.88;;;;;;;;;;5114898;28;20293;-84
2023/11/24 10:04:23;;;;;;;13.30;2.25;;;;;;;;;;5115215;28;20019;-84
2023/11/24 10:06:49;;;;;;;10.50;2.28;;;;;;;;;;5114873;28;20042;-84
2023/11/24 10:09:21;;;;;;;17.00;3.33;;;;;;;;;;5114518;28;20456;-84
2023/11/24 10:11:46;;;;;;;;;;;;;;;;;;5097008;28;20384;-84
2023/11/24 10:14:12;;;;;;;6.75;1.70;;;;;;;;;;5114958;28;19916;-84
2023/11/24 10:16:40;;;;;;;14.10;2.28;;;;;;;;;;5114928;28;20417;-84
2023/11/24 10:19:10;;;;;;;16.00;2.15;;;;;;;;;;5114727;28;20030;-84
2023/11/24 10:21:36;;;;;;;9.75;2.47;;;;;;;;;;5114892;28;20019;-84
2023/11/24 10:24:01;;;;;;;16.23;2.50;;;;;;;;;;5114828;28;20019;-84
2023/11/24 10:26:27;;;;;;;9.50;1.95;;;;;;;;;;5114250;28;20024;-85
2023/11/24 10:28:52;;;;;;;8.40;1.83;;;;;;;;;;5114566;28;20024;-84
2023/11/24 10:31:17;;;;;;;16.10;2.65;;;;;;;;;;5114325;28;20286;-84
2023/11/24 10:33:43;;;;;;;6.70;1.58;;;;;;;;;;5114234;28;20380;-84
2023/11/24 10:36:09;;;;;;;15.45;2.63;;;;;;;;;;5114106;28;20019;-84
2023/11/24 10:38:36;;;;;;;8.13;2.50;;;;;;;;;;5114359;28;20047;-84
2023/11/24 10:41:01;;;;;;;11.45;2.33;;;;;;;;;;5096129;28;20358;-84
2023/11/24 10:43:31;;;;;;;19.33;2.45;;;;;;;;;;5114403;28;20472;-85
2023/11/24 10:45:58;;;;;;;14.05;2.13;;;;;;;;;;5114045;28;20020;-84
2023/11/24 10:48:29;;;;;;;19.90;2.63;;;;;;;;;;5113987;28;20027;-84
2023/11/24 10:50:54;;;;;;;14.38;2.15;;;;;;;;;;5114288;28;20070;-84
2023/11/24 10:53:22;;;;;;;16.43;2.53;;;;;;;;;;5113966;28;20465;-84
2023/11/24 10:55:48;;;;;;;12.27;2.30;;;;;;;;;;5114221;28;20015;-84
2023/11/24 10:58:13;;;;;;;16.38;2.92;;;;;;;;;;5114028;28;20081;-84
2023/11/24 11:00:38;;;;;;;7.88;1.50;;;;;;;;;;5114070;28;20437;-84
2023/11/24 11:03:05;;;;;;;13.57;2.42;;;;;;;;;;5096010;28;20020;-84
2023/11/24 11:05:33;;;;;;;14.35;2.42;;;;;;;;;;5114374;28;20019;-84
2023/11/24 11:08:17;;;;;;;13.20;1.98;;;;;;;;;;5114164;28;20099;-84
2023/11/24 11:10:45;;;;;;;10.38;2.25;;;;;;;;;;5115299;28;20031;-84
2023/11/24 11:13:12;;;;;;;8.05;1.83;;;;;;;;;;5118289;28;20046;-84
2023/11/24 11:15:38;;;;;;;9.40;2.22;;;;;;;;;;5118253;28;20106;-84
2023/11/24 11:18:15;;;;;;;11.85;2.45;;;;;;;;;;5099649;28;20016;-84
2023/11/24 11:20:41;;;;;;;13.80;2.08;;;;;;;;;;5118005;28;20024;-84
2023/11/24 11:23:08;;;;;;;7.13;1.88;;;;;;;;;;5118068;28;20030;-84
2023/11/24 11:25:35;;;;;;;9.20;1.90;;;;;;;;;;5118206;28;20024;-84
2023/11/24 11:28:19;;;;;;;13.27;1.70;;;;;;;;;;5117461;28;20050;-85
2023/11/24 11:30:48;;;;;;;11.23;1.98;;;;;;;;;;5089913;28;20404;-85
2023/11/24 11:33:14;;;;;;;12.50;1.77;;;;;;;;;;5104408;28;20023;-84
2023/11/24 11:35:41;;;;;;;4.00;1.33;;;;;;;;;;5117185;28;20115;-84
2023/11/24 11:38:07;;;;;;;9.85;1.98;;;;;;;;;;5117435;28;20028;-85
2023/11/24 11:40:33;;;;;;;10.52;1.70;;;;;;;;;;5117207;28;20079;-89
2023/11/24 11:43:02;;;;;;;9.32;1.83;;;;;;;;;;5098931;28;20114;-84
2023/11/24 11:45:30;;;;;;;9.93;1.52;;;;;;;;;;5117506;28;20035;-85
2023/11/24 11:47:56;;;;;;;9.65;2.22;;;;;;;;;;5117111;28;20024;-85
2023/11/24 11:50:22;;;;;;;12.82;1.80;;;;;;;;;;5116900;28;20061;-84
2023/11/24 11:52:49;;;;;;;10.00;2.05;;;;;;;;;;5116330;28;20020;-85
2023/11/24 11:55:15;;;;;;;9.13;1.67;;;;;;;;;;5116805;28;20023;-85
2023/11/24 11:57:40;;;;;;;10.02;1.45;;;;;;;;;;5116806;28;20074;-84
2023/11/24 12:00:08;;;;;;;13.60;1.83;;;;;;;;;;5337781;22;20080;-80
2023/11/24 12:02:34;;;;;;;13.57;2.22;;;;;;;;;;5229171;22;20893;-85
2023/11/24 12:04:59;;;;;;;8.88;1.60;;;;;;;;;;5294083;23;20147;-82
2023/11/24 12:07:26;;;;;;;8.63;2.00;;;;;;;;;;5057963;28;20027;-82
2023/11/24 12:09:51;;;;;;;9.13;1.98;;;;;;;;;;5058083;28;20111;-80
2023/11/24 12:12:17;;;;;;;7.70;2.03;;;;;;;;;;5075243;28;20096;-80
2023/11/24 12:14:43;;;;;;;9.23;1.20;;;;;;;;;;5075830;28;20375;-80
2023/11/24 12:17:12;;;;;;;12.70;1.63;;;;;;;;;;5075826;28;20043;-80
2023/11/24 12:19:37;;;;;;;13.60;1.75;;;;;;;;;;5075752;28;20483;-80
2023/11/24 12:22:04;;;;;;;7.82;1.58;;;;;;;;;;5074376;28;20020;-80
2023/11/24 12:24:30;;;;;;;7.47;1.65;;;;;;;;;;5075552;28;20127;-80
2023/11/24 12:26:56;;;;;;;12.95;2.33;;;;;;;;;;5075357;28;20502;-81
2023/11/24 12:29:24;;;;;;;10.60;1.70;;;;;;;;;;5057476;28;20020;-79
2023/11/24 12:31:50;;;;;;;9.52;1.83;;;;;;;;;;5075245;28;20472;-79
2023/11/24 12:34:16;;;;;;;9.85;1.80;;;;;;;;;;5075233;28;20016;-80
2023/11/24 12:36:42;;;;;;;11.77;1.45;;;;;;;;;;5055729;28;20046;-81
2023/11/24 12:39:13;;;;;;;8.38;1.20;;;;;;;;;;5056155;28;20024;-80
2023/11/24 12:41:38;;;;;;;16.73;1.77;;;;;;;;;;5074970;28;20070;-80
2023/11/24 12:44:05;;;;;;;6.90;1.60;;;;;;;;;;5049487;28;20048;-80
2023/11/24 12:46:30;;;;;;;8.98;1.85;;;;;;;;;;5073366;28;20502;-80
2023/11/24 12:49:03;;;;;;;8.57;1.40;;;;;;;;;;5057030;28;20084;-79
2023/11/24 12:51:29;;;;;;;6.75;1.80;;;;;;;;;;5057073;28;20316;-80
2023/11/24 12:53:54;;;;;;;9.73;1.48;;;;;;;;;;5057101;28;20043;-80
2023/11/24 12:56:19;;;;;;;11.17;1.83;;;;;;;;;;5056926;28;20078;-79
2023/11/24 12:58:44;;;;;;;9.23;1.63;;;;;;;;;;5074831;28;20277;-80
2023/11/24 13:01:09;;;;;;;13.83;1.67;;;;;;;;;;5074780;28;20042;-79
2023/11/24 13:03:35;;;;;;;9.75;2.17;;;;;;;;;;5056586;28;20051;-79
2023/11/24 13:06:00;;;;;;;11.30;1.80;;;;;;;;;;5074747;28;20016;-79
2023/11/24 13:08:25;;;;;;;10.27;1.48;;;;;;;;;;5074657;28;20318;-79
2023/11/24 13:10:53;;;;;;;8.85;1.55;;;;;;;;;;5056653;28;20020;-79
2023/11/24 13:13:20;;;;;;;12.13;2.20;;;;;;;;;;5074627;28;20017;-79
2023/11/24 13:15:46;;;;;;;7.00;2.08;;;;;;;;;;5056531;28;20012;-81
2023/11/24 13:18:11;;;;;;;10.02;2.00;;;;;;;;;;5056506;28;20017;-81
2023/11/24 13:20:38;;;;;;;10.50;2.20;;;;;;;;;;5074630;28;20066;-81
2023/11/24 13:23:04;;;;;;;13.70;2.05;;;;;;;;;;5074374;28;20024;-81
2023/11/24 13:25:30;;;;;;;15.48;2.42;;;;;;;;;;5056411;28;20162;-79
2023/11/24 13:27:56;;;;;;;4.72;1.88;;;;;;;;;;5056319;28;20017;-79
2023/11/24 13:30:22;;;;;;;6.97;1.55;;;;;;;;;;5074195;28;20111;-79
2023/11/24 13:32:47;;;;;;;7.75;1.92;;;;;;;;;;5056138;28;20016;-79
2023/11/24 13:35:15;;;;;;;10.55;2.17;;;;;;;;;;5073951;28;20035;-79
2023/11/24 13:37:42;;;;;;;6.20;1.65;;;;;;;;;;5074122;28;20016;-79
2023/11/24 13:40:11;;;;;;;3.85;1.40;;;;;;;;;;5055960;28;20070;-79
2023/11/24 13:42:37;;;;;;;8.05;1.23;;;;;;;;;;5056061;28;20024;-79
2023/11/24 13:45:02;;;;;;;4.28;1.10;;;;;;;;;;5056031;28;20102;-79
2023/11/24 13:47:28;;;;;;;4.97;1.33;;;;;;;;;;5055824;28;20372;-79
2023/11/24 13:49:53;;;;;;;4.50;1.17;;;;;;;;;;5055981;28;20418;-79
2023/11/24 13:52:19;;;;;;;4.05;1.58;;;;;;;;;;5055968;28;20617;-79
2023/11/24 13:54:44;;;;;;;6.67;1.20;;;;;;;;;;5073903;28;20028;-79
2023/11/24 13:57:09;;;;;;;4.97;1.13;;;;;;;;;;5073925;28;20261;-79
2023/11/24 13:59:35;;;;;;;4.50;1.17;;;;;;;;;;5055717;28;20029;-79
2023/11/24 14:02:00;;;;;;;4.35;1.55;;;;;;;;;;5055857;28;20028;-79
2023/11/24 14:04:26;;;;;;;9.25;1.50;;;;;;;;;;5055587;28;20041;-79
2023/11/24 14:06:52;;;;;;;5.22;1.35;;;;;;;;;;5055730;28;20012;-79
2023/11/24 14:09:17;;;;;;;9.32;1.92;;;;;;;;;;5073637;28;20017;-79
2023/11/24 14:11:52;;;;;;;7.03;1.90;;;;;;;;;;5073591;28;20020;-79
2023/11/24 14:14:18;;;;;;;8.25;1.42;;;;;;;;;;5055658;28;20138;-79
2023/11/24 14:16:44;;;;;;;7.43;1.65;;;;;;;;;;5073544;28;20078;-79
2023/11/24 14:19:09;;;;;;;5.65;1.50;;;;;;;;;;5055551;28;20028;-79
2023/11/24 14:21:36;;;;;;;6.38;1.70;;;;;;;;;;5055413;28;20100;-79
2023/11/24 14:24:03;;;;;;;9.88;1.70;;;;;;;;;;5073485;28;20008;-79
2023/11/24 14:26:28;;;;;;;9.25;1.42;;;;;;;;;;5073377;28;20016;-79
2023/11/24 14:28:54;;;;;;;4.07;1.15;;;;;;;;;;5073417;28;20028;-79